Time;durP1;ratioP1;P1;durP2;ratioP2;P2;SDS_P1;SDS_P2;PMS_P1;PMS_P2;Temp;Humidity;BMP_temperature;BMP_pressure;BME280_temperature;BME280_humidity;BME280_pressure;Samples;Min_cycle;Max_cycle;Signal;HPM_P1;HPM_P2
2023/10/19 00:01:11;;;;;;;25.48;16.52;;;8.20;99.90;;;;;;5022453;28;20080;-86
2023/10/19 00:03:37;;;;;;;19.85;14.55;;;8.20;99.90;;;;;;5029975;28;20055;-86
2023/10/19 00:06:05;;;;;;;20.05;14.65;;;8.20;99.90;;;;;;5029914;28;20050;-86
2023/10/19 00:08:41;;;;;;;20.63;15.45;;;8.20;99.90;;;;;;5028764;28;20053;-85
2023/10/19 00:11:11;;;;;;;20.20;15.23;;;8.20;99.90;;;;;;5028833;28;20132;-86
2023/10/19 00:13:38;;;;;;;22.52;15.52;;;8.50;99.90;;;;;;5029053;28;20045;-84
2023/10/19 00:16:17;;;;;;;22.90;15.73;;;8.20;99.90;;;;;;5028767;28;20060;-84
2023/10/19 00:18:49;;;;;;;22.25;15.85;;;8.70;99.90;;;;;;5009903;28;20058;-85
2023/10/19 00:21:20;;;;;;;20.33;16.37;;;8.20;99.90;;;;;;5025444;28;20084;-85
2023/10/19 00:23:47;;;;;;;25.20;15.65;;;8.10;99.90;;;;;;5029758;28;20056;-85
2023/10/19 00:26:19;;;;;;;21.67;16.33;;;8.10;99.90;;;;;;5028861;28;20134;-84
2023/10/19 00:28:48;;;;;;;;;;;8.10;99.90;;;;;;5029421;28;20045;-85
2023/10/19 00:31:13;;;;;;;23.52;15.35;;;8.10;99.90;;;;;;5029281;28;20027;-86
2023/10/19 00:33:40;;;;;;;20.55;15.73;;;8.10;99.90;;;;;;5028793;28;20092;-84
2023/10/19 00:36:07;;;;;;;24.73;17.52;;;8.60;99.90;;;;;;5028584;28;20049;-85
2023/10/19 00:38:47;;;;;;;23.27;16.83;;;8.10;99.90;;;;;;5028264;28;20499;-85
2023/10/19 00:41:13;;;;;;;25.05;17.17;;;8.10;99.90;;;;;;5028867;28;20045;-84
2023/10/19 00:43:42;;;;;;;23.83;17.15;;;8.10;99.90;;;;;;5029553;28;20064;-86
2023/10/19 00:46:20;;;;;;;24.23;16.77;;;8.10;99.90;;;;;;5028470;28;20052;-86
2023/10/19 00:48:53;;;;;;;24.52;16.13;;;8.40;99.90;;;;;;5012052;28;20049;-84
2023/10/19 00:53:55;;;;;;;31.25;18.23;;;8.10;99.90;;;;;;5027937;28;20191;-85
2023/10/19 00:56:24;;;;;;;24.23;17.23;;;8.10;99.90;;;;;;5012391;28;20352;-86
2023/10/19 00:58:56;;;;;;;26.02;17.58;;;8.10;99.90;;;;;;5028678;28;20128;-85
2023/10/19 01:01:28;;;;;;;27.15;18.05;;;8.20;99.90;;;;;;5030093;28;20049;-85
2023/10/19 01:03:56;;;;;;;27.58;18.10;;;8.10;99.90;;;;;;5028506;28;20056;-85
2023/10/19 01:06:25;;;;;;;26.77;17.92;;;8.10;99.90;;;;;;5008535;28;20050;-85
2023/10/19 01:08:52;;;;;;;29.05;18.70;;;8.10;99.90;;;;;;5008839;28;20041;-85
2023/10/19 01:11:21;;;;;;;25.27;18.25;;;8.10;99.90;;;;;;5010580;28;20053;-85
2023/10/19 01:13:48;;;;;;;25.35;17.95;;;8.10;99.90;;;;;;5025342;28;20452;-86
2023/10/19 01:16:20;;;;;;;24.38;18.10;;;8.10;99.90;;;;;;5028773;28;20629;-84
2023/10/19 01:18:55;;;;;;;24.52;17.35;;;8.10;99.90;;;;;;5029228;28;20041;-86
2023/10/19 01:21:27;;;;;;;25.15;17.50;;;8.10;99.90;;;;;;5028256;28;20091;-85
2023/10/19 01:23:53;;;;;;;27.65;18.65;;;8.00;99.90;;;;;;5028553;28;20492;-85
2023/10/19 01:26:25;;;;;;;28.17;17.92;;;8.00;99.90;;;;;;5011278;28;20107;-85
2023/10/19 01:29:00;;;;;;;24.02;17.90;;;8.10;99.90;;;;;;5029651;28;20537;-84
2023/10/19 01:33:57;;;;;;;26.70;18.60;;;8.10;99.90;;;;;;5030318;28;20577;-86
2023/10/19 01:38:53;;;;;;;25.67;18.52;;;8.00;99.90;;;;;;5031540;28;20057;-85
2023/10/19 01:41:19;;;;;;;28.38;18.90;;;8.10;99.90;;;;;;5020380;28;20046;-85
2023/10/19 01:43:48;;;;;;;25.92;18.55;;;8.10;99.90;;;;;;5012611;28;20060;-85
2023/10/19 01:46:23;;;;;;;28.13;18.58;;;8.10;99.90;;;;;;5029425;28;20046;-83
2023/10/19 01:48:55;;;;;;;24.77;18.27;;;8.10;99.90;;;;;;5030808;28;20041;-85
2023/10/19 01:51:25;;;;;;;26.27;17.35;;;8.10;99.90;;;;;;5031058;28;20677;-86
2023/10/19 01:53:51;;;;;;;22.85;17.42;;;8.10;99.90;;;;;;5012558;28;20092;-86
2023/10/19 01:56:17;;;;;;;23.13;17.27;;;8.10;99.90;;;;;;5028570;28;20046;-86
2023/10/19 01:58:46;;;;;;;22.42;16.20;;;8.10;99.90;;;;;;5012868;28;20518;-86
2023/10/19 02:03:43;;;;;;;25.83;17.40;;;8.20;99.90;;;;;;5029859;28;20057;-85
2023/10/19 02:06:17;;;;;;;24.00;16.95;;;8.20;99.90;;;;;;5028712;28;20403;-85
2023/10/19 02:09:16;;;;;;;25.92;17.10;;;8.20;99.90;;;;;;5029528;28;20175;-87
2023/10/19 02:11:42;;;;;;;25.90;16.40;;;8.20;99.90;;;;;;5024364;28;20058;-85
2023/10/19 02:14:14;;;;;;;21.77;15.40;;;8.20;99.90;;;;;;5028234;28;20048;-86
2023/10/19 02:16:45;;;;;;;21.65;15.40;;;8.20;99.90;;;;;;5029186;28;20042;-86
2023/10/19 02:19:12;;;;;;;22.02;16.35;;;8.20;99.90;;;;;;5030713;28;20049;-86
2023/10/19 02:21:39;;;;;;;23.02;15.93;;;8.20;99.90;;;;;;5029281;28;20056;-86
2023/10/19 02:24:07;;;;;;;22.85;16.25;;;8.20;99.90;;;;;;5028501;28;20054;-85
2023/10/19 02:26:33;;;;;;;24.10;16.48;;;8.20;99.90;;;;;;5028087;28;20403;-87
2023/10/19 02:28:59;;;;;;;25.55;15.45;;;9.10;99.90;;;;;;5028162;28;20097;-85
2023/10/19 02:31:25;;;;;;;20.38;14.98;;;8.20;99.90;;;;;;5028207;28;20076;-85
2023/10/19 02:33:58;;;;;;;20.13;15.07;;;8.30;99.90;;;;;;5012121;28;20053;-86
2023/10/19 02:36:29;;;;;;;23.25;14.85;;;8.30;99.90;;;;;;5027720;28;20511;-86
2023/10/19 02:38:58;;;;;;;20.75;14.60;;;8.30;99.90;;;;;;5026997;28;20049;-87
2023/10/19 02:41:26;;;;;;;21.02;13.93;;;8.30;99.90;;;;;;5028250;28;20053;-86
2023/10/19 02:44:05;;;;;;;19.95;14.15;;;8.30;99.90;;;;;;5027377;28;20045;-85
2023/10/19 02:46:32;;;;;;;19.67;14.18;;;8.30;99.90;;;;;;5027086;28;20041;-85
2023/10/19 02:49:09;;;;;;;20.58;13.73;;;8.30;99.90;;;;;;5010858;28;20038;-87
2023/10/19 02:51:35;;;;;;;18.58;14.02;;;8.30;99.90;;;;;;5027440;28;20041;-85
2023/10/19 02:54:02;;;;;;;18.55;12.98;;;8.40;99.90;;;;;;5028501;28;20103;-86
2023/10/19 02:56:29;;;;;;;20.30;13.82;;;8.40;99.90;;;;;;5026361;28;20102;-86
2023/10/19 02:59:03;;;;;;;19.27;14.35;;;8.30;99.90;;;;;;5009636;28;20056;-85
2023/10/19 03:01:36;;;;;;;20.00;13.93;;;8.40;99.90;;;;;;5026421;28;20077;-85
2023/10/19 03:04:03;;;;;;;17.33;13.18;;;8.30;99.90;;;;;;5008286;28;20053;-86
2023/10/19 03:06:33;;;;;;;18.08;13.65;;;8.40;99.90;;;;;;5026591;28;20072;-86
2023/10/19 03:09:13;;;;;;;18.70;13.70;;;9.20;99.90;;;;;;5026782;28;20045;-85
2023/10/19 03:11:43;;;;;;;18.10;13.45;;;8.40;99.90;;;;;;5026274;28;20099;-85
2023/10/19 03:14:11;;;;;;;17.50;12.90;;;8.40;99.90;;;;;;5024697;28;20053;-86
2023/10/19 03:16:37;;;;;;;22.15;13.30;;;8.40;99.90;;;;;;5027300;28;20048;-86
2023/10/19 03:19:04;;;;;;;15.48;12.27;;;8.40;99.90;;;;;;5014752;28;20084;-86
2023/10/19 03:21:34;;;;;;;15.35;11.77;;;8.40;99.90;;;;;;5013972;28;20068;-86
2023/10/19 03:24:05;;;;;;;17.17;13.15;;;8.40;99.90;;;;;;5014461;28;20107;-85
2023/10/19 03:26:30;;;;;;;14.77;11.68;;;8.50;99.90;;;;;;5030583;28;20098;-86
2023/10/19 03:29:07;;;;;;;16.13;12.02;;;8.40;99.90;;;;;;5030391;28;20689;-86
2023/10/19 03:31:33;;;;;;;16.08;11.32;;;8.50;99.90;;;;;;5029932;28;20735;-86
2023/10/19 03:33:59;;;;;;;15.70;11.88;;;8.50;99.90;;;;;;5029686;28;20057;-86
2023/10/19 03:36:26;;;;;;;17.95;12.30;;;8.50;99.90;;;;;;5030339;28;20568;-86
2023/10/19 03:38:53;;;;;;;16.70;12.50;;;8.50;99.90;;;;;;5030225;28;20119;-87
2023/10/19 03:41:24;;;;;;;19.27;12.52;;;9.10;99.90;;;;;;5012663;28;20045;-86
2023/10/19 03:43:54;;;;;;;18.73;14.52;;;8.50;99.90;;;;;;5030391;28;20396;-86
2023/10/19 03:46:54;;;;;;;16.27;13.00;;;8.50;99.90;;;;;;5029201;28;20418;-85
2023/10/19 03:49:12;;;;;;;19.55;14.07;;;8.50;99.90;;;;;;5027837;28;20141;-86
2023/10/19 03:51:57;;;;;;;19.05;13.55;;;8.50;99.90;;;;;;5029794;28;20128;-86
2023/10/19 03:54:24;;;;;;;20.35;13.07;;;8.50;99.90;;;;;;5029985;28;20088;-84
2023/10/19 03:56:50;;;;;;;21.20;14.10;;;8.50;99.90;;;;;;5029522;28;20774;-86
2023/10/19 03:59:17;;;;;;;18.58;13.48;;;8.50;99.90;;;;;;5029421;28;20076;-85
2023/10/19 04:01:43;;;;;;;18.50;13.10;;;8.60;99.90;;;;;;5029059;28;20055;-85
2023/10/19 04:04:12;;;;;;;16.60;12.25;;;9.00;99.90;;;;;;5029961;28;20160;-86
2023/10/19 04:06:37;;;;;;;18.63;13.13;;;8.60;99.90;;;;;;5029404;28;20049;-87
2023/10/19 04:09:06;;;;;;;17.23;12.98;;;8.60;99.90;;;;;;5029430;28;20052;-85
2023/10/19 04:11:33;;;;;;;19.13;13.98;;;8.60;99.90;;;;;;5012248;28;20160;-85
2023/10/19 04:14:03;;;;;;;18.63;13.45;;;8.60;99.90;;;;;;5012867;28;20056;-85
2023/10/19 04:16:30;;;;;;;19.40;13.27;;;8.60;99.90;;;;;;5029131;28;20091;-86
2023/10/19 04:18:55;;;;;;;18.05;12.18;;;8.60;99.90;;;;;;5029367;28;20096;-86
2023/10/19 04:21:21;;;;;;;18.65;13.27;;;9.20;99.90;;;;;;5029100;28;20124;-86
2023/10/19 04:23:46;;;;;;;21.33;13.90;;;8.70;99.90;;;;;;5029102;28;20103;-85
2023/10/19 04:26:13;;;;;;;17.77;13.15;;;8.70;99.90;;;;;;5045219;28;20860;-86
2023/10/19 04:28:44;;;;;;;20.35;14.18;;;8.70;99.90;;;;;;5028535;28;20507;-86
2023/10/19 04:31:14;;;;;;;19.38;14.10;;;8.70;99.90;;;;;;5045394;28;20100;-86
2023/10/19 04:33:42;;;;;;;17.85;13.77;;;8.70;99.90;;;;;;5029182;28;20092;-86
2023/10/19 04:36:11;;;;;;;16.98;12.85;;;8.70;99.90;;;;;;5029338;28;20077;-86
2023/10/19 04:38:37;;;;;;;18.77;13.20;;;8.70;99.90;;;;;;5028388;28;20053;-86
2023/10/19 04:41:10;;;;;;;19.23;13.48;;;8.80;99.90;;;;;;5028403;28;20045;-86
2023/10/19 04:43:39;;;;;;;17.67;13.65;;;8.80;99.90;;;;;;5028757;28;20045;-85
2023/10/19 04:46:12;;;;;;;18.67;12.98;;;8.80;99.90;;;;;;5029298;28;20037;-85
2023/10/19 04:48:42;;;;;;;19.55;13.55;;;8.80;99.90;;;;;;5028913;28;20087;-87
2023/10/19 04:51:09;;;;;;;20.10;13.38;;;8.80;99.90;;;;;;5012450;28;20044;-86
2023/10/19 04:53:35;;;;;;;19.08;14.60;;;9.00;99.90;;;;;;5030277;28;20096;-86
2023/10/19 04:56:03;;;;;;;19.73;14.77;;;8.80;99.90;;;;;;5028312;28;20117;-86
2023/10/19 04:58:29;;;;;;;17.77;13.27;;;8.90;99.90;;;;;;5011556;28;20444;-86
2023/10/19 05:00:55;;;;;;;17.10;13.50;;;8.90;99.90;;;;;;5030059;28;20043;-86
2023/10/19 05:03:21;;;;;;;19.92;13.60;;;8.90;99.90;;;;;;5030297;28;20380;-85
2023/10/19 05:05:47;;;;;;;19.65;13.98;;;8.90;99.90;;;;;;5031001;28;20108;-85
2023/10/19 05:08:12;;;;;;;22.98;14.38;;;8.90;99.90;;;;;;5028873;28;20053;-87
2023/10/19 05:10:38;;;;;;;20.27;13.77;;;8.90;99.90;;;;;;5028769;28;20049;-86
2023/10/19 05:13:04;;;;;;;20.13;14.57;;;8.90;99.90;;;;;;5029323;28;20049;-87
2023/10/19 05:15:30;;;;;;;17.88;12.93;;;8.90;99.90;;;;;;5013786;28;20092;-90
2023/10/19 05:17:56;;;;;;;16.75;13.05;;;9.00;99.90;;;;;;5028942;28;20084;-86
2023/10/19 05:20:23;;;;;;;17.55;13.07;;;9.00;99.90;;;;;;5028047;28;20061;-86
2023/10/19 05:22:49;;;;;;;15.88;12.40;;;9.00;99.90;;;;;;5029171;28;20863;-89
2023/10/19 05:25:14;;;;;;;16.13;12.43;;;9.00;99.90;;;;;;5029084;28;20079;-86
2023/10/19 05:27:42;;;;;;;14.63;11.75;;;9.00;99.90;;;;;;5028779;28;20095;-85
2023/10/19 05:30:11;;;;;;;16.85;12.45;;;9.00;99.90;;;;;;5029152;28;20064;-86
2023/10/19 05:32:37;;;;;;;14.13;11.48;;;9.10;99.90;;;;;;5012254;28;20037;-87
2023/10/19 05:35:04;;;;;;;14.80;11.68;;;9.00;99.90;;;;;;5029515;28;20045;-87
2023/10/19 05:37:31;;;;;;;16.58;12.25;;;9.00;99.90;;;;;;5028455;28;20089;-86
2023/10/19 05:39:57;;;;;;;15.07;12.13;;;9.10;99.90;;;;;;5013931;28;20048;-86
2023/10/19 05:42:23;;;;;;;16.55;11.93;;;9.10;99.90;;;;;;5014905;28;20056;-86
2023/10/19 05:44:48;;;;;;;17.75;12.63;;;9.70;99.90;;;;;;5030329;28;20117;-87
2023/10/19 05:47:14;;;;;;;16.15;11.82;;;9.10;99.90;;;;;;5028789;28;20096;-85
2023/10/19 05:49:39;;;;;;;17.23;11.82;;;9.10;99.90;;;;;;5028370;28;20045;-85
2023/10/19 05:52:05;;;;;;;15.63;11.90;;;9.10;99.90;;;;;;5028043;28;20463;-87
2023/10/19 05:54:31;;;;;;;15.90;11.75;;;9.10;99.90;;;;;;5026277;28;20128;-83
2023/10/19 05:56:57;;;;;;;15.75;11.90;;;9.10;99.90;;;;;;5028394;28;20037;-84
2023/10/19 05:59:26;;;;;;;14.25;11.25;;;9.10;99.90;;;;;;5028549;28;20474;-83
2023/10/19 06:01:52;;;;;;;13.75;10.60;;;9.10;99.90;;;;;;5027603;28;20119;-85
2023/10/19 06:04:17;;;;;;;12.75;10.45;;;9.10;99.90;;;;;;5028292;28;20045;-84
2023/10/19 06:06:43;;;;;;;11.60;9.70;;;9.10;99.90;;;;;;5027290;28;20096;-83
2023/10/19 06:09:09;;;;;;;13.10;10.30;;;9.10;99.90;;;;;;5026405;28;20060;-84
2023/10/19 06:11:37;;;;;;;12.73;10.15;;;9.10;99.90;;;;;;5026620;28;20100;-86
2023/10/19 06:14:06;;;;;;;12.38;10.23;;;9.20;99.90;;;;;;5026864;28;20418;-86
2023/10/19 06:16:33;;;;;;;12.93;10.00;;;9.10;99.90;;;;;;5026316;28;20053;-86
2023/10/19 06:18:59;;;;;;;13.02;10.10;;;9.20;99.90;;;;;;5027220;28;20041;-87
2023/10/19 06:21:25;;;;;;;12.15;9.82;;;9.20;99.90;;;;;;5026283;28;20061;-85
2023/10/19 06:23:54;;;;;;;13.65;10.48;;;9.20;99.90;;;;;;5026964;28;20493;-85
2023/10/19 06:26:20;;;;;;;11.77;9.70;;;9.20;99.90;;;;;;5026234;28;20514;-85
2023/10/19 06:28:46;;;;;;;13.25;10.20;;;9.20;99.90;;;;;;5026078;28;20045;-84
2023/10/19 06:31:12;;;;;;;13.27;10.43;;;9.20;99.90;;;;;;5010611;28;20087;-85
2023/10/19 06:33:41;;;;;;;13.10;10.27;;;9.20;99.90;;;;;;5027040;28;20051;-84
2023/10/19 06:36:07;;;;;;;11.90;9.68;;;9.20;99.90;;;;;;5026251;28;20049;-83
2023/10/19 06:38:32;;;;;;;16.48;10.77;;;9.30;99.90;;;;;;5026796;28;20053;-84
2023/10/19 06:40:59;;;;;;;12.05;9.55;;;9.30;99.90;;;;;;5026403;28;20042;-86
2023/10/19 06:43:28;;;;;;;11.70;9.73;;;9.70;99.90;;;;;;5025938;28;20520;-83
2023/10/19 06:45:55;;;;;;;11.90;10.02;;;9.30;99.90;;;;;;5028011;28;20119;-82
2023/10/19 06:48:21;;;;;;;10.80;9.35;;;9.30;99.90;;;;;;5009982;28;20483;-86
2023/10/19 06:50:46;;;;;;;12.50;9.23;;;9.40;99.90;;;;;;5026852;28;20499;-87
2023/10/19 06:53:12;;;;;;;12.05;9.73;;;9.40;99.90;;;;;;5025769;28;20038;-88
2023/10/19 06:55:38;;;;;;;12.00;10.20;;;9.40;99.90;;;;;;5028546;28;20065;-87
2023/10/19 06:58:09;;;;;;;11.70;9.98;;;9.40;99.90;;;;;;5027495;28;20677;-91
2023/10/19 07:00:36;;;;;;;11.50;9.95;;;9.30;99.90;;;;;;5030406;28;20503;-88
2023/10/19 07:03:03;;;;;;;10.10;8.73;;;9.60;99.90;;;;;;5013433;28;20789;-90
2023/10/19 07:05:31;;;;;;;11.27;9.60;;;9.50;99.90;;;;;;5012924;28;20465;-90
2023/10/19 07:07:59;;;;;;;12.07;9.52;;;9.50;99.90;;;;;;5013269;28;20041;-90
2023/10/19 07:10:27;;;;;;;11.93;9.65;;;9.50;99.90;;;;;;5027257;28;20115;-88
2023/10/19 07:12:54;;;;;;;10.52;9.43;;;9.50;99.90;;;;;;5026731;28;20041;-88
2023/10/19 07:15:22;;;;;;;10.77;9.32;;;9.50;99.90;;;;;;5028182;28;20095;-90
2023/10/19 07:17:49;;;;;;;11.95;9.88;;;9.60;99.90;;;;;;5026908;28;20041;-88
2023/10/19 07:20:25;;;;;;;11.90;9.80;;;9.60;99.90;;;;;;5044705;28;20407;-87
2023/10/19 07:22:53;;;;;;;12.15;10.07;;;9.60;99.90;;;;;;5027224;28;20153;-89
2023/10/19 07:25:21;;;;;;;12.80;10.20;;;9.60;99.90;;;;;;5028073;28;20037;-89
2023/10/19 07:27:50;;;;;;;12.93;10.50;;;9.60;99.90;;;;;;5029314;28;20056;-87
2023/10/19 07:30:21;;;;;;;11.48;10.18;;;9.60;99.90;;;;;;5028902;28;20068;-88
2023/10/19 07:32:51;;;;;;;12.13;10.15;;;9.60;99.90;;;;;;5011706;28;20053;-89
2023/10/19 07:35:18;;;;;;;12.15;10.63;;;9.70;99.90;;;;;;5028521;28;20049;-91
2023/10/19 07:37:44;;;;;;;13.27;11.18;;;9.70;99.90;;;;;;5028556;28;20128;-90
2023/10/19 07:40:13;;;;;;;14.68;11.23;;;9.70;99.90;;;;;;4996459;28;20153;-85
2023/10/19 07:42:40;;;;;;;15.15;12.18;;;9.70;99.90;;;;;;5010150;28;20054;-89
2023/10/19 07:45:11;;;;;;;14.63;11.13;;;9.70;99.90;;;;;;4992409;28;20042;-91
2023/10/19 07:47:40;;;;;;;16.35;12.07;;;9.70;99.90;;;;;;5016632;28;20053;-92
2023/10/19 07:50:16;;;;;;;15.15;11.90;;;9.80;99.90;;;;;;5012056;28;20299;-88
2023/10/19 07:52:43;;;;;;;14.82;11.40;;;9.80;99.90;;;;;;5010886;28;20041;-90
2023/10/19 07:55:09;;;;;;;15.23;12.07;;;9.80;99.90;;;;;;5028112;28;20049;-90
2023/10/19 07:57:35;;;;;;;17.83;12.20;;;9.80;99.90;;;;;;5010749;28;20084;-88
2023/10/19 08:00:02;;;;;;;18.10;12.45;;;9.80;99.90;;;;;;5010046;28;20046;-86
2023/10/19 08:02:30;;;;;;;19.08;13.63;;;9.90;99.90;;;;;;5027875;28;20049;-86
2023/10/19 08:04:56;;;;;;;15.77;12.70;;;9.60;99.90;;;;;;5029695;28;20141;-87
2023/10/19 08:07:22;;;;;;;18.00;13.10;;;9.90;99.90;;;;;;5030346;28;20143;-87
2023/10/19 08:09:47;;;;;;;18.95;12.82;;;9.90;99.90;;;;;;5030331;28;20046;-86
2023/10/19 08:12:13;;;;;;;18.85;13.70;;;9.90;99.90;;;;;;5014437;28;20053;-88
2023/10/19 08:14:39;;;;;;;17.58;12.85;;;9.90;99.90;;;;;;5031346;28;20120;-89
2023/10/19 08:17:08;;;;;;;18.35;14.07;;;10.00;99.90;;;;;;5030806;28;20446;-86
2023/10/19 08:19:35;;;;;;;16.55;13.68;;;10.00;99.90;;;;;;5029800;28;20076;-90
2023/10/19 08:22:01;;;;;;;18.63;13.75;;;10.00;99.90;;;;;;5017806;28;20044;-89
2023/10/19 08:24:28;;;;;;;19.90;14.02;;;10.00;99.90;;;;;;5019741;28;20046;-89
2023/10/19 08:26:55;;;;;;;22.40;13.10;;;10.20;99.90;;;;;;5019879;28;20095;-88
2023/10/19 08:29:21;;;;;;;21.20;13.63;;;10.10;99.90;;;;;;5033709;28;20099;-89
2023/10/19 08:31:49;;;;;;;18.85;13.80;;;10.10;99.90;;;;;;5016712;28;20044;-89
2023/10/19 08:34:15;;;;;;;18.85;14.30;;;10.10;99.90;;;;;;5027649;28;20041;-86
2023/10/19 08:36:42;;;;;;;20.52;13.57;;;10.10;99.90;;;;;;5033500;28;20053;-87
2023/10/19 08:39:09;;;;;;;18.38;14.10;;;10.70;99.90;;;;;;5033579;28;20053;-87
2023/10/19 08:41:36;;;;;;;21.20;13.55;;;10.20;99.90;;;;;;5012682;28;20045;-89
2023/10/19 08:44:15;;;;;;;19.05;13.43;;;10.20;99.90;;;;;;5032946;28;20336;-89
2023/10/19 08:46:47;;;;;;;20.58;13.93;;;10.20;99.90;;;;;;5030912;28;20052;-87
2023/10/19 08:49:13;;;;;;;20.60;14.32;;;10.20;99.90;;;;;;5033548;28;20052;-88
2023/10/19 08:51:44;;;;;;;20.63;14.05;;;10.20;99.90;;;;;;5032800;28;20123;-88
2023/10/19 08:54:11;;;;;;;18.70;13.40;;;10.20;99.90;;;;;;5033906;28;20041;-90
2023/10/19 08:56:38;;;;;;;17.88;13.77;;;10.20;99.90;;;;;;5017562;28;20044;-89
2023/10/19 08:59:06;;;;;;;17.23;13.60;;;10.20;99.90;;;;;;5045641;28;20071;-87
2023/10/19 09:01:31;;;;;;;23.60;15.13;;;10.20;99.90;;;;;;5034276;28;20048;-89
2023/10/19 09:03:58;;;;;;;19.52;14.55;;;10.30;99.90;;;;;;5034830;28;20467;-89
2023/10/19 09:06:24;;;;;;;23.05;14.23;;;10.30;99.90;;;;;;5034484;28;20053;-88
2023/10/19 09:08:49;;;;;;;19.70;13.98;;;10.30;99.90;;;;;;5018363;28;20263;-90
2023/10/19 09:11:20;;;;;;;20.23;14.73;;;10.30;99.90;;;;;;5019034;28;20140;-90
2023/10/19 09:13:59;;;;;;;19.63;14.65;;;10.30;99.90;;;;;;5035355;28;20438;-90
2023/10/19 09:16:26;;;;;;;22.98;15.23;;;10.30;99.90;;;;;;5035007;28;20037;-91
2023/10/19 09:18:52;;;;;;;20.98;15.13;;;10.30;99.90;;;;;;5033726;28;20059;-87
2023/10/19 09:21:24;;;;;;;19.80;14.98;;;10.30;99.90;;;;;;5034748;28;20410;-89
2023/10/19 09:23:54;;;;;;;22.00;15.77;;;10.40;99.90;;;;;;5018014;28;20049;-89
2023/10/19 09:26:21;;;;;;;20.23;14.98;;;10.40;99.90;;;;;;5017242;28;20287;-91
2023/10/19 09:28:53;;;;;;;19.73;15.10;;;10.40;99.90;;;;;;5017430;28;20045;-89
2023/10/19 09:31:21;;;;;;;16.23;13.60;;;10.70;99.90;;;;;;5015398;28;20041;-86
2023/10/19 09:33:48;;;;;;;18.45;14.63;;;10.50;99.90;;;;;;5033135;28;20404;-90
2023/10/19 09:36:15;;;;;;;20.98;14.48;;;10.50;99.90;;;;;;5016111;28;20430;-91
2023/10/19 09:38:47;;;;;;;19.45;14.38;;;10.50;99.90;;;;;;5016418;28;20048;-87
2023/10/19 09:41:14;;;;;;;18.42;13.65;;;10.60;99.90;;;;;;5016236;28;20399;-88
2023/10/19 09:44:12;;;;;;;18.67;14.50;;;10.60;99.90;;;;;;5016948;28;20045;-87
2023/10/19 09:46:40;;;;;;;18.35;14.23;;;10.60;99.90;;;;;;5015310;28;20146;-89
2023/10/19 09:49:06;;;;;;;16.92;14.15;;;10.90;99.90;;;;;;5015652;28;20060;-91
2023/10/19 09:51:33;;;;;;;22.45;13.93;;;10.70;99.90;;;;;;5016955;28;20132;-86
2023/10/19 09:54:30;;;;;;;19.77;14.18;;;10.80;99.90;;;;;;5026565;28;20041;-87
2023/10/19 09:57:02;;;;;;;20.77;15.10;;;10.80;99.90;;;;;;5031271;28;20105;-86
2023/10/19 09:59:40;;;;;;;18.73;15.00;;;10.80;99.90;;;;;;5015537;28;20171;-86
2023/10/19 10:02:15;;;;;;;18.90;14.88;;;10.80;99.90;;;;;;5014036;28;20033;-85
2023/10/19 10:04:44;;;;;;;20.48;15.40;;;10.80;99.90;;;;;;5014636;28;20075;-85
2023/10/19 10:07:12;;;;;;;18.70;14.55;;;10.90;99.90;;;;;;5011865;28;20048;-90
2023/10/19 10:09:43;;;;;;;21.88;14.77;;;10.90;99.90;;;;;;5022788;28;20041;-85
2023/10/19 10:12:26;;;;;;;23.45;16.13;;;11.00;99.90;;;;;;5014371;28;20052;-86
2023/10/19 10:15:10;;;;;;;19.60;15.18;;;11.50;99.90;;;;;;5029703;28;20101;-89
2023/10/19 10:17:37;;;;;;;18.05;14.40;;;11.10;99.90;;;;;;5028492;28;20083;-89
2023/10/19 10:20:17;;;;;;;19.30;14.98;;;11.40;99.90;;;;;;5050377;28;20044;-91
2023/10/19 10:22:43;;;;;;;19.05;14.48;;;11.20;99.90;;;;;;5037561;28;20045;-86
2023/10/19 10:25:29;;;;;;;18.17;13.95;;;11.20;99.90;;;;;;5013511;28;20048;-85
2023/10/19 10:27:55;;;;;;;18.80;14.27;;;11.30;99.90;;;;;;5046753;28;20037;-86
2023/10/19 10:30:21;;;;;;;23.02;15.05;;;11.30;99.90;;;;;;5030525;28;20053;-84
2023/10/19 10:32:53;;;;;;;20.38;14.93;;;11.40;99.90;;;;;;5014091;28;20375;-86
2023/10/19 10:35:37;;;;;;;18.27;15.32;;;11.40;99.90;;;;;;5029032;28;20124;-84
2023/10/19 10:38:08;;;;;;;19.33;14.65;;;11.50;99.90;;;;;;5028594;28;20056;-84
2023/10/19 10:40:44;;;;;;;17.23;14.32;;;11.50;99.90;;;;;;5046597;28;20094;-84
2023/10/19 10:43:11;;;;;;;19.15;14.15;;;11.60;99.90;;;;;;5047645;28;20041;-88
2023/10/19 10:45:37;;;;;;;19.73;14.85;;;11.60;99.90;;;;;;5031645;28;20533;-86
2023/10/19 10:48:03;;;;;;;17.60;14.75;;;12.00;99.90;;;;;;5025187;28;20113;-85
2023/10/19 10:50:29;;;;;;;18.67;14.70;;;11.70;99.90;;;;;;5028787;28;20049;-85
2023/10/19 10:52:57;;;;;;;19.48;15.68;;;12.10;99.90;;;;;;5027932;28;20052;-85
2023/10/19 10:55:30;;;;;;;20.60;15.20;;;12.10;99.90;;;;;;5029351;28;20057;-86
2023/10/19 10:57:57;;;;;;;19.98;15.63;;;11.70;99.90;;;;;;5046612;28;20044;-83
2023/10/19 11:00:30;;;;;;;18.05;15.27;;;11.60;99.90;;;;;;5045203;28;20057;-85
2023/10/19 11:03:04;;;;;;;20.75;15.30;;;11.60;99.90;;;;;;5028459;28;20439;-86
2023/10/19 11:05:33;;;;;;;21.20;14.80;;;11.60;99.90;;;;;;5028293;28;20072;-84
2023/10/19 11:08:20;;;;;;;21.50;15.60;;;11.70;99.90;;;;;;5027821;28;20071;-85
2023/10/19 11:10:47;;;;;;;19.83;16.50;;;11.60;99.90;;;;;;5012806;28;20460;-85
2023/10/19 11:13:17;;;;;;;19.67;15.27;;;11.60;99.90;;;;;;5028537;28;20105;-85
2023/10/19 11:15:53;;;;;;;18.50;15.70;;;11.60;99.90;;;;;;5031927;28;20351;-85
2023/10/19 11:18:39;;;;;;;24.85;15.73;;;11.70;99.90;;;;;;5028408;28;20053;-84
2023/10/19 11:21:14;;;;;;;23.98;16.48;;;11.70;99.90;;;;;;5046354;28;20582;-87
2023/10/19 11:23:42;;;;;;;19.70;16.30;;;12.50;99.90;;;;;;5014880;28;20037;-88
2023/10/19 11:26:09;;;;;;;20.95;16.33;;;11.80;99.90;;;;;;5029406;28;20048;-85
2023/10/19 11:28:42;;;;;;;19.65;15.93;;;11.90;99.90;;;;;;5029524;28;20098;-86
2023/10/19 11:31:19;;;;;;;20.80;16.38;;;11.90;99.90;;;;;;5013256;28;20139;-87
2023/10/19 11:33:48;;;;;;;21.05;16.55;;;12.00;99.90;;;;;;5030658;28;20741;-85
2023/10/19 11:36:15;;;;;;;20.48;16.48;;;12.10;99.90;;;;;;5030456;28;20110;-87
2023/10/19 11:38:52;;;;;;;20.48;16.77;;;12.10;99.90;;;;;;5031523;28;20088;-87
2023/10/19 11:41:18;;;;;;;20.55;16.75;;;12.40;99.90;;;;;;5033539;28;20056;-85
2023/10/19 11:43:48;;;;;;;20.48;16.35;;;12.20;99.90;;;;;;5033403;28;20049;-86
2023/10/19 11:46:16;;;;;;;20.48;16.48;;;12.80;99.90;;;;;;5033651;28;20045;-84
2023/10/19 11:48:45;;;;;;;18.70;15.55;;;12.30;99.90;;;;;;5032954;28;20059;-86
2023/10/19 11:51:11;;;;;;;20.85;15.07;;;12.40;99.90;;;;;;5033921;28;20506;-83
2023/10/19 11:53:38;;;;;;;21.90;16.42;;;12.50;99.90;;;;;;5032274;28;20052;-86
2023/10/19 11:56:06;;;;;;;19.35;13.90;;;12.50;99.90;;;;;;5034237;28;20040;-85
2023/10/19 11:58:37;;;;;;;18.35;14.75;;;12.60;99.90;;;;;;5033451;28;20487;-84
2023/10/19 12:01:08;;;;;;;22.10;16.33;;;12.60;99.90;;;;;;5032898;28;20041;-85
2023/10/19 12:03:37;;;;;;;20.60;16.15;;;12.70;99.90;;;;;;5049959;28;20052;-85
2023/10/19 12:06:06;;;;;;;17.60;15.73;;;12.80;99.90;;;;;;5031030;28;20455;-88
2023/10/19 12:08:33;;;;;;;20.67;16.30;;;12.90;99.90;;;;;;5031016;28;20909;-85
2023/10/19 12:10:58;;;;;;;20.05;15.98;;;13.30;99.90;;;;;;5030810;28;20453;-84
2023/10/19 12:13:25;;;;;;;27.98;16.23;;;13.00;99.90;;;;;;5049331;28;20041;-86
2023/10/19 12:15:54;;;;;;;16.58;14.90;;;13.50;99.90;;;;;;5015578;28;20408;-82
2023/10/19 12:18:21;;;;;;;18.30;15.18;;;12.90;99.90;;;;;;5051240;28;20195;-86
2023/10/19 12:20:47;;;;;;;18.13;15.75;;;12.90;99.90;;;;;;5018909;28;20053;-88
2023/10/19 12:23:14;;;;;;;19.00;15.07;;;12.90;99.90;;;;;;5033152;28;20057;-86
2023/10/19 12:25:42;;;;;;;18.10;15.43;;;12.90;99.90;;;;;;5032248;28;20049;-86
2023/10/19 12:28:08;;;;;;;20.30;15.68;;;12.90;99.90;;;;;;5032691;28;20060;-81
2023/10/19 12:30:36;;;;;;;19.80;15.85;;;12.90;99.90;;;;;;5050318;28;20045;-86
2023/10/19 12:33:11;;;;;;;18.40;16.33;;;12.90;99.90;;;;;;5032192;28;20143;-85
2023/10/19 12:35:53;;;;;;;18.63;15.65;;;12.90;99.90;;;;;;5031821;28;20045;-85
2023/10/19 12:38:22;;;;;;;18.77;15.52;;;12.90;99.90;;;;;;5032160;28;20053;-85
2023/10/19 12:40:50;;;;;;;19.25;15.85;;;12.90;99.90;;;;;;5050167;28;20060;-87
2023/10/19 12:43:18;;;;;;;19.67;16.38;;;13.20;99.90;;;;;;5032221;28;20041;-89
2023/10/19 12:45:50;;;;;;;17.75;15.15;;;12.90;99.90;;;;;;5032303;28;20049;-90
2023/10/19 12:48:16;;;;;;;17.75;14.90;;;13.00;99.90;;;;;;5032074;28;20044;-88
2023/10/19 12:50:42;;;;;;;15.82;14.23;;;12.70;99.90;;;;;;5031405;28;20053;-86
2023/10/19 12:53:09;;;;;;;16.48;14.07;;;12.70;99.90;;;;;;5031691;28;20513;-88